sensor_id;sensor_type;location;lat;lon;timestamp;temperature;humidity
3308;DHT22;1666;48.898;9.182;2024-01-06T00:02:11;5.40;1.00
3308;DHT22;1666;48.898;9.182;2024-01-06T00:04:41;5.40;1.00
3308;DHT22;1666;48.898;9.182;2024-01-06T00:07:11;5.40;1.00
3308;DHT22;1666;48.898;9.182;2024-01-06T00:09:41;5.40;1.00
3308;DHT22;1666;48.898;9.182;2024-01-06T00:12:11;5.40;1.00
3308;DHT22;1666;48.898;9.182;2024-01-06T00:14:42;5.30;1.00
3308;DHT22;1666;48.898;9.182;2024-01-06T00:17:16;5.30;1.00
3308;DHT22;1666;48.898;9.182;2024-01-06T00:19:46;5.30;1.00
3308;DHT22;1666;48.898;9.182;2024-01-06T00:22:18;5.30;1.00
3308;DHT22;1666;48.898;9.182;2024-01-06T00:24:48;5.30;1.00
3308;DHT22;1666;48.898;9.182;2024-01-06T00:27:19;5.30;1.00
3308;DHT22;1666;48.898;9.182;2024-01-06T00:29:49;5.30;1.00
3308;DHT22;1666;48.898;9.182;2024-01-06T00:32:21;5.30;1.00
3308;DHT22;1666;48.898;9.182;2024-01-06T00:34:51;5.30;1.00
3308;DHT22;1666;48.898;9.182;2024-01-06T00:37:21;5.30;1.00
3308;DHT22;1666;48.898;9.182;2024-01-06T00:39:51;5.30;1.00
3308;DHT22;1666;48.898;9.182;2024-01-06T00:42:21;5.30;1.00
3308;DHT22;1666;48.898;9.182;2024-01-06T00:44:51;5.30;1.00
3308;DHT22;1666;48.898;9.182;2024-01-06T00:47:24;5.30;1.00
3308;DHT22;1666;48.898;9.182;2024-01-06T00:49:54;5.30;1.00
3308;DHT22;1666;48.898;9.182;2024-01-06T00:52:25;5.30;1.00
3308;DHT22;1666;48.898;9.182;2024-01-06T00:54:56;5.30;1.00
3308;DHT22;1666;48.898;9.182;2024-01-06T00:57:32;5.30;1.00
3308;DHT22;1666;48.898;9.182;2024-01-06T01:00:09;5.30;1.00
3308;DHT22;1666;48.898;9.182;2024-01-06T01:02:44;5.30;1.00
3308;DHT22;1666;48.898;9.182;2024-01-06T01:05:15;5.30;1.00
3308;DHT22;1666;48.898;9.182;2024-01-06T01:07:45;5.30;1.00
3308;DHT22;1666;48.898;9.182;2024-01-06T01:10:15;5.30;1.00
3308;DHT22;1666;48.898;9.182;2024-01-06T01:12:45;5.40;1.00
3308;DHT22;1666;48.898;9.182;2024-01-06T01:15:15;5.30;1.00
3308;DHT22;1666;48.898;9.182;2024-01-06T01:17:48;5.30;1.00
3308;DHT22;1666;48.898;9.182;2024-01-06T01:20:18;5.40;1.00
3308;DHT22;1666;48.898;9.182;2024-01-06T01:22:48;5.30;1.00
3308;DHT22;1666;48.898;9.182;2024-01-06T01:25:18;5.30;1.00
3308;DHT22;1666;48.898;9.182;2024-01-06T01:27:48;5.30;1.00
3308;DHT22;1666;48.898;9.182;2024-01-06T01:30:18;5.30;1.00
3308;DHT22;1666;48.898;9.182;2024-01-06T01:32:51;5.30;1.00
3308;DHT22;1666;48.898;9.182;2024-01-06T01:35:21;5.30;1.00
3308;DHT22;1666;48.898;9.182;2024-01-06T01:37:51;5.30;1.00
3308;DHT22;1666;48.898;9.182;2024-01-06T01:40:21;5.30;1.00
3308;DHT22;1666;48.898;9.182;2024-01-06T01:42:51;5.30;1.00
3308;DHT22;1666;48.898;9.182;2024-01-06T01:45:21;5.30;1.00
3308;DHT22;1666;48.898;9.182;2024-01-06T01:47:54;5.30;1.00
3308;DHT22;1666;48.898;9.182;2024-01-06T01:50:24;5.30;1.00
3308;DHT22;1666;48.898;9.182;2024-01-06T01:52:58;5.30;1.00
3308;DHT22;1666;48.898;9.182;2024-01-06T01:55:28;5.30;1.00
3308;DHT22;1666;48.898;9.182;2024-01-06T01:57:58;5.40;1.00
3308;DHT22;1666;48.898;9.182;2024-01-06T02:00:28;5.40;1.00
3308;DHT22;1666;48.898;9.182;2024-01-06T02:03:03;5.40;1.00
3308;DHT22;1666;48.898;9.182;2024-01-06T02:05:34;5.40;1.00
3308;DHT22;1666;48.898;9.182;2024-01-06T02:08:05;5.40;1.00
3308;DHT22;1666;48.898;9.182;2024-01-06T02:10:35;5.40;1.00
3308;DHT22;1666;48.898;9.182;2024-01-06T02:13:09;5.40;1.00
3308;DHT22;1666;48.898;9.182;2024-01-06T02:15:40;5.40;1.00
3308;DHT22;1666;48.898;9.182;2024-01-06T02:18:12;5.40;1.00
3308;DHT22;1666;48.898;9.182;2024-01-06T02:20:43;5.40;1.00
3308;DHT22;1666;48.898;9.182;2024-01-06T02:23:16;5.40;1.00
3308;DHT22;1666;48.898;9.182;2024-01-06T02:25:46;5.40;1.00
3308;DHT22;1666;48.898;9.182;2024-01-06T02:28:16;5.40;1.00
3308;DHT22;1666;48.898;9.182;2024-01-06T02:30:46;5.40;1.00
3308;DHT22;1666;48.898;9.182;2024-01-06T02:33:17;5.40;1.00
3308;DHT22;1666;48.898;9.182;2024-01-06T02:35:51;5.40;1.00
3308;DHT22;1666;48.898;9.182;2024-01-06T02:38:24;5.50;1.00
3308;DHT22;1666;48.898;9.182;2024-01-06T02:40:54;5.40;1.00
3308;DHT22;1666;48.898;9.182;2024-01-06T02:43:24;5.40;1.00
3308;DHT22;1666;48.898;9.182;2024-01-06T02:45:54;5.40;1.00
3308;DHT22;1666;48.898;9.182;2024-01-06T02:48:24;5.40;1.00
3308;DHT22;1666;48.898;9.182;2024-01-06T02:50:57;5.40;1.00
3308;DHT22;1666;48.898;9.182;2024-01-06T02:53:29;5.40;1.00
3308;DHT22;1666;48.898;9.182;2024-01-06T02:55:59;5.40;1.00
3308;DHT22;1666;48.898;9.182;2024-01-06T02:58:30;5.40;1.00
3308;DHT22;1666;48.898;9.182;2024-01-06T03:01:00;5.40;1.00
3308;DHT22;1666;48.898;9.182;2024-01-06T03:03:30;5.40;1.00
3308;DHT22;1666;48.898;9.182;2024-01-06T03:06:00;5.40;1.00
3308;DHT22;1666;48.898;9.182;2024-01-06T03:08:33;5.30;1.00
3308;DHT22;1666;48.898;9.182;2024-01-06T03:11:04;5.30;1.00
3308;DHT22;1666;48.898;9.182;2024-01-06T03:13:34;5.30;1.00
3308;DHT22;1666;48.898;9.182;2024-01-06T03:16:04;5.20;1.00
3308;DHT22;1666;48.898;9.182;2024-01-06T03:18:34;5.20;1.00
3308;DHT22;1666;48.898;9.182;2024-01-06T03:21:16;5.20;1.00
3308;DHT22;1666;48.898;9.182;2024-01-06T03:23:51;5.20;1.00
3308;DHT22;1666;48.898;9.182;2024-01-06T03:26:22;5.20;1.00
3308;DHT22;1666;48.898;9.182;2024-01-06T03:28:54;5.20;1.00
3308;DHT22;1666;48.898;9.182;2024-01-06T03:31:25;5.20;1.00
3308;DHT22;1666;48.898;9.182;2024-01-06T03:33:55;5.20;1.00
3308;DHT22;1666;48.898;9.182;2024-01-06T03:36:26;5.20;1.00
3308;DHT22;1666;48.898;9.182;2024-01-06T03:38:59;5.20;1.00
3308;DHT22;1666;48.898;9.182;2024-01-06T03:41:29;5.20;1.00
3308;DHT22;1666;48.898;9.182;2024-01-06T03:43:59;5.20;1.00
3308;DHT22;1666;48.898;9.182;2024-01-06T03:46:29;5.20;1.00
3308;DHT22;1666;48.898;9.182;2024-01-06T03:48:59;5.20;1.00
3308;DHT22;1666;48.898;9.182;2024-01-06T03:51:29;5.20;1.00
3308;DHT22;1666;48.898;9.182;2024-01-06T03:54:02;5.20;1.00
3308;DHT22;1666;48.898;9.182;2024-01-06T03:56:32;5.10;1.00
3308;DHT22;1666;48.898;9.182;2024-01-06T03:59:02;5.10;1.00
3308;DHT22;1666;48.898;9.182;2024-01-06T04:01:32;5.10;1.00
3308;DHT22;1666;48.898;9.182;2024-01-06T04:04:03;5.10;1.00
3308;DHT22;1666;48.898;9.182;2024-01-06T04:06:33;5.10;1.00
3308;DHT22;1666;48.898;9.182;2024-01-06T04:09:06;5.10;1.00
3308;DHT22;1666;48.898;9.182;2024-01-06T04:11:36;5.10;1.00
3308;DHT22;1666;48.898;9.182;2024-01-06T04:14:06;5.10;1.00
3308;DHT22;1666;48.898;9.182;2024-01-06T04:16:36;5.00;1.00
3308;DHT22;1666;48.898;9.182;2024-01-06T04:19:06;5.00;1.00
3308;DHT22;1666;48.898;9.182;2024-01-06T04:21:38;5.00;1.00
3308;DHT22;1666;48.898;9.182;2024-01-06T04:24:11;4.90;1.00
3308;DHT22;1666;48.898;9.182;2024-01-06T04:26:41;4.90;1.00
3308;DHT22;1666;48.898;9.182;2024-01-06T04:29:12;4.90;1.00
3308;DHT22;1666;48.898;9.182;2024-01-06T04:31:42;4.90;1.00
3308;DHT22;1666;48.898;9.182;2024-01-06T04:34:12;4.90;1.00
3308;DHT22;1666;48.898;9.182;2024-01-06T04:36:42;4.90;1.00
3308;DHT22;1666;48.898;9.182;2024-01-06T04:39:15;4.80;1.00
3308;DHT22;1666;48.898;9.182;2024-01-06T04:41:45;4.80;1.00
3308;DHT22;1666;48.898;9.182;2024-01-06T04:44:15;4.80;1.00
3308;DHT22;1666;48.898;9.182;2024-01-06T04:46:44;4.80;1.00
3308;DHT22;1666;48.898;9.182;2024-01-06T04:49:14;4.80;1.00
3308;DHT22;1666;48.898;9.182;2024-01-06T04:51:44;4.70;1.00
3308;DHT22;1666;48.898;9.182;2024-01-06T04:54:17;4.70;1.00
3308;DHT22;1666;48.898;9.182;2024-01-06T04:56:47;4.70;1.00
3308;DHT22;1666;48.898;9.182;2024-01-06T04:59:17;4.70;1.00
3308;DHT22;1666;48.898;9.182;2024-01-06T05:01:47;4.70;1.00
3308;DHT22;1666;48.898;9.182;2024-01-06T05:04:18;4.70;1.00
3308;DHT22;1666;48.898;9.182;2024-01-06T05:06:49;4.70;1.00
3308;DHT22;1666;48.898;9.182;2024-01-06T05:09:22;4.70;1.00
3308;DHT22;1666;48.898;9.182;2024-01-06T05:11:52;4.70;1.00
3308;DHT22;1666;48.898;9.182;2024-01-06T05:14:22;4.70;1.00
3308;DHT22;1666;48.898;9.182;2024-01-06T05:16:52;4.70;1.00
3308;DHT22;1666;48.898;9.182;2024-01-06T05:19:22;4.70;1.00
3308;DHT22;1666;48.898;9.182;2024-01-06T05:21:52;4.60;1.00
3308;DHT22;1666;48.898;9.182;2024-01-06T05:24:25;4.70;1.00
3308;DHT22;1666;48.898;9.182;2024-01-06T05:26:55;4.70;1.00
3308;DHT22;1666;48.898;9.182;2024-01-06T05:29:25;4.70;1.00
3308;DHT22;1666;48.898;9.182;2024-01-06T05:31:55;4.70;1.00
3308;DHT22;1666;48.898;9.182;2024-01-06T05:34:25;4.70;1.00
3308;DHT22;1666;48.898;9.182;2024-01-06T05:36:56;4.60;1.00
3308;DHT22;1666;48.898;9.182;2024-01-06T05:39:28;4.60;1.00
3308;DHT22;1666;48.898;9.182;2024-01-06T05:41:58;4.60;1.00
3308;DHT22;1666;48.898;9.182;2024-01-06T05:44:28;4.50;1.00
3308;DHT22;1666;48.898;9.182;2024-01-06T05:46:58;4.50;1.00
3308;DHT22;1666;48.898;9.182;2024-01-06T05:49:28;4.50;1.00
3308;DHT22;1666;48.898;9.182;2024-01-06T05:51:58;4.50;1.00
3308;DHT22;1666;48.898;9.182;2024-01-06T05:54:31;4.50;1.00
3308;DHT22;1666;48.898;9.182;2024-01-06T05:57:01;4.50;1.00
3308;DHT22;1666;48.898;9.182;2024-01-06T05:59:32;4.50;1.00
3308;DHT22;1666;48.898;9.182;2024-01-06T06:02:03;4.50;1.00
3308;DHT22;1666;48.898;9.182;2024-01-06T06:04:33;4.50;1.00
3308;DHT22;1666;48.898;9.182;2024-01-06T06:07:03;4.50;1.00
3308;DHT22;1666;48.898;9.182;2024-01-06T06:09:36;4.50;1.00
3308;DHT22;1666;48.898;9.182;2024-01-06T06:12:08;4.50;1.00
3308;DHT22;1666;48.898;9.182;2024-01-06T06:14:38;4.50;1.00
3308;DHT22;1666;48.898;9.182;2024-01-06T06:17:08;4.50;1.00
3308;DHT22;1666;48.898;9.182;2024-01-06T06:19:37;4.50;1.00
3308;DHT22;1666;48.898;9.182;2024-01-06T06:22:08;4.50;1.00
3308;DHT22;1666;48.898;9.182;2024-01-06T06:24:40;4.60;1.00
3308;DHT22;1666;48.898;9.182;2024-01-06T06:27:10;4.60;1.00
3308;DHT22;1666;48.898;9.182;2024-01-06T06:29:40;4.60;1.00
3308;DHT22;1666;48.898;9.182;2024-01-06T06:32:10;4.60;1.00
3308;DHT22;1666;48.898;9.182;2024-01-06T06:34:40;4.70;1.00
3308;DHT22;1666;48.898;9.182;2024-01-06T06:37:10;4.60;1.00
3308;DHT22;1666;48.898;9.182;2024-01-06T06:39:43;4.70;1.00
3308;DHT22;1666;48.898;9.182;2024-01-06T06:42:14;4.70;1.00
3308;DHT22;1666;48.898;9.182;2024-01-06T06:44:44;4.70;1.00
3308;DHT22;1666;48.898;9.182;2024-01-06T06:47:14;4.70;1.00
3308;DHT22;1666;48.898;9.182;2024-01-06T06:49:44;4.70;1.00
3308;DHT22;1666;48.898;9.182;2024-01-06T06:52:14;4.80;1.00
3308;DHT22;1666;48.898;9.182;2024-01-06T06:54:46;4.80;1.00
3308;DHT22;1666;48.898;9.182;2024-01-06T06:57:16;4.80;1.00
3308;DHT22;1666;48.898;9.182;2024-01-06T06:59:46;4.80;1.00
3308;DHT22;1666;48.898;9.182;2024-01-06T07:02:16;4.90;1.00
3308;DHT22;1666;48.898;9.182;2024-01-06T07:04:46;4.80;1.00
3308;DHT22;1666;48.898;9.182;2024-01-06T07:07:16;4.90;1.00
3308;DHT22;1666;48.898;9.182;2024-01-06T07:09:49;4.90;1.00
3308;DHT22;1666;48.898;9.182;2024-01-06T07:12:19;4.90;1.00
3308;DHT22;1666;48.898;9.182;2024-01-06T07:14:49;5.00;1.00
3308;DHT22;1666;48.898;9.182;2024-01-06T07:17:19;5.00;1.00
3308;DHT22;1666;48.898;9.182;2024-01-06T07:19:49;5.00;1.00
3308;DHT22;1666;48.898;9.182;2024-01-06T07:22:19;5.00;1.00
3308;DHT22;1666;48.898;9.182;2024-01-06T07:24:52;5.00;1.00
3308;DHT22;1666;48.898;9.182;2024-01-06T07:27:22;5.00;1.00
3308;DHT22;1666;48.898;9.182;2024-01-06T07:29:52;5.00;1.00
3308;DHT22;1666;48.898;9.182;2024-01-06T07:32:23;5.10;1.00
3308;DHT22;1666;48.898;9.182;2024-01-06T07:34:53;5.10;1.00
3308;DHT22;1666;48.898;9.182;2024-01-06T07:37:23;5.10;1.00
3308;DHT22;1666;48.898;9.182;2024-01-06T07:39:55;5.10;1.00
3308;DHT22;1666;48.898;9.182;2024-01-06T07:42:26;5.20;1.00
3308;DHT22;1666;48.898;9.182;2024-01-06T07:44:56;5.20;1.00
3308;DHT22;1666;48.898;9.182;2024-01-06T07:47:26;5.20;1.00
3308;DHT22;1666;48.898;9.182;2024-01-06T07:49:56;5.20;1.00
3308;DHT22;1666;48.898;9.182;2024-01-06T07:52:27;5.20;1.00
3308;DHT22;1666;48.898;9.182;2024-01-06T07:54:59;5.20;1.00
3308;DHT22;1666;48.898;9.182;2024-01-06T07:57:30;5.20;1.00
3308;DHT22;1666;48.898;9.182;2024-01-06T08:00:00;5.20;1.00
3308;DHT22;1666;48.898;9.182;2024-01-06T08:02:38;5.20;1.00
3308;DHT22;1666;48.898;9.182;2024-01-06T08:05:08;5.20;1.00
3308;DHT22;1666;48.898;9.182;2024-01-06T08:07:39;5.20;1.00
3308;DHT22;1666;48.898;9.182;2024-01-06T08:10:11;5.20;1.00
3308;DHT22;1666;48.898;9.182;2024-01-06T08:12:41;5.20;1.00
3308;DHT22;1666;48.898;9.182;2024-01-06T08:15:11;5.30;1.00
3308;DHT22;1666;48.898;9.182;2024-01-06T08:17:41;5.30;1.00
3308;DHT22;1666;48.898;9.182;2024-01-06T08:20:11;5.30;1.00
3308;DHT22;1666;48.898;9.182;2024-01-06T08:22:41;5.30;1.00
3308;DHT22;1666;48.898;9.182;2024-01-06T08:25:14;5.30;1.00
3308;DHT22;1666;48.898;9.182;2024-01-06T08:27:44;5.40;1.00
3308;DHT22;1666;48.898;9.182;2024-01-06T08:30:14;5.40;1.00
3308;DHT22;1666;48.898;9.182;2024-01-06T08:32:45;5.40;1.00
3308;DHT22;1666;48.898;9.182;2024-01-06T08:35:15;5.40;1.00
3308;DHT22;1666;48.898;9.182;2024-01-06T08:37:46;5.40;1.00
3308;DHT22;1666;48.898;9.182;2024-01-06T08:40:19;5.40;1.00
3308;DHT22;1666;48.898;9.182;2024-01-06T08:42:49;5.50;1.00
3308;DHT22;1666;48.898;9.182;2024-01-06T08:45:19;5.40;1.00
3308;DHT22;1666;48.898;9.182;2024-01-06T08:47:49;5.40;1.00
3308;DHT22;1666;48.898;9.182;2024-01-06T08:50:20;5.40;1.00
3308;DHT22;1666;48.898;9.182;2024-01-06T08:52:50;5.40;1.00
3308;DHT22;1666;48.898;9.182;2024-01-06T08:55:22;5.30;1.00
3308;DHT22;1666;48.898;9.182;2024-01-06T08:57:52;5.40;1.00
3308;DHT22;1666;48.898;9.182;2024-01-06T09:00:23;5.30;1.00
3308;DHT22;1666;48.898;9.182;2024-01-06T09:02:53;5.20;1.00
3308;DHT22;1666;48.898;9.182;2024-01-06T09:05:23;5.30;1.00
3308;DHT22;1666;48.898;9.182;2024-01-06T09:07:54;5.40;1.00
3308;DHT22;1666;48.898;9.182;2024-01-06T09:10:26;5.50;1.00
3308;DHT22;1666;48.898;9.182;2024-01-06T09:12:56;5.50;1.00
3308;DHT22;1666;48.898;9.182;2024-01-06T09:15:27;5.50;1.00
3308;DHT22;1666;48.898;9.182;2024-01-06T09:17:57;5.60;1.00
3308;DHT22;1666;48.898;9.182;2024-01-06T09:20:27;5.70;1.00
3308;DHT22;1666;48.898;9.182;2024-01-06T09:22:57;5.70;1.00
3308;DHT22;1666;48.898;9.182;2024-01-06T09:25:32;5.70;1.00
3308;DHT22;1666;48.898;9.182;2024-01-06T09:28:02;5.90;1.00
3308;DHT22;1666;48.898;9.182;2024-01-06T09:30:32;5.50;1.00
3308;DHT22;1666;48.898;9.182;2024-01-06T09:33:04;5.60;1.00
3308;DHT22;1666;48.898;9.182;2024-01-06T09:35:35;5.70;1.00
3308;DHT22;1666;48.898;9.182;2024-01-06T09:38:05;5.60;1.00
3308;DHT22;1666;48.898;9.182;2024-01-06T09:40:41;5.70;1.00
3308;DHT22;1666;48.898;9.182;2024-01-06T09:43:12;5.70;1.00
3308;DHT22;1666;48.898;9.182;2024-01-06T09:45:44;5.70;1.00
3308;DHT22;1666;48.898;9.182;2024-01-06T09:48:17;5.70;1.00
3308;DHT22;1666;48.898;9.182;2024-01-06T09:50:48;5.70;1.00
3308;DHT22;1666;48.898;9.182;2024-01-06T09:53:19;5.70;1.00
3308;DHT22;1666;48.898;9.182;2024-01-06T09:55:52;5.70;1.00
3308;DHT22;1666;48.898;9.182;2024-01-06T09:58:22;5.50;1.00
3308;DHT22;1666;48.898;9.182;2024-01-06T10:00:57;5.50;1.00
3308;DHT22;1666;48.898;9.182;2024-01-06T10:03:27;5.40;1.00
3308;DHT22;1666;48.898;9.182;2024-01-06T10:05:57;5.40;1.00
3308;DHT22;1666;48.898;9.182;2024-01-06T10:08:30;5.40;1.00
3308;DHT22;1666;48.898;9.182;2024-01-06T10:11:04;5.50;1.00
3308;DHT22;1666;48.898;9.182;2024-01-06T10:13:34;5.40;1.00
3308;DHT22;1666;48.898;9.182;2024-01-06T10:16:05;5.50;1.00
3308;DHT22;1666;48.898;9.182;2024-01-06T10:18:36;5.60;1.00
3308;DHT22;1666;48.898;9.182;2024-01-06T10:21:07;5.60;1.00
3308;DHT22;1666;48.898;9.182;2024-01-06T10:23:37;5.60;1.00
3308;DHT22;1666;48.898;9.182;2024-01-06T10:26:12;5.60;1.00
3308;DHT22;1666;48.898;9.182;2024-01-06T10:28:43;5.60;1.00
3308;DHT22;1666;48.898;9.182;2024-01-06T10:31:14;5.60;1.00
3308;DHT22;1666;48.898;9.182;2024-01-06T10:33:48;5.60;1.00
3308;DHT22;1666;48.898;9.182;2024-01-06T10:36:19;5.70;1.00
3308;DHT22;1666;48.898;9.182;2024-01-06T10:38:52;5.60;1.00
3308;DHT22;1666;48.898;9.182;2024-01-06T10:41:26;5.60;1.00
3308;DHT22;1666;48.898;9.182;2024-01-06T10:43:58;5.70;1.00
3308;DHT22;1666;48.898;9.182;2024-01-06T10:46:31;5.60;1.00
3308;DHT22;1666;48.898;9.182;2024-01-06T10:49:01;5.70;1.00
3308;DHT22;1666;48.898;9.182;2024-01-06T10:51:34;5.70;1.00
3308;DHT22;1666;48.898;9.182;2024-01-06T10:54:07;5.70;1.00
3308;DHT22;1666;48.898;9.182;2024-01-06T10:56:43;5.70;1.00
3308;DHT22;1666;48.898;9.182;2024-01-06T10:59:14;5.60;1.00
3308;DHT22;1666;48.898;9.182;2024-01-06T11:01:45;5.70;1.00
3308;DHT22;1666;48.898;9.182;2024-01-06T11:04:16;5.60;1.00
3308;DHT22;1666;48.898;9.182;2024-01-06T11:06:47;5.60;1.00
3308;DHT22;1666;48.898;9.182;2024-01-06T11:09:21;5.60;1.00
3308;DHT22;1666;48.898;9.182;2024-01-06T11:11:55;5.70;1.00
3308;DHT22;1666;48.898;9.182;2024-01-06T11:14:27;5.60;1.00
3308;DHT22;1666;48.898;9.182;2024-01-06T11:17:00;5.60;1.00
3308;DHT22;1666;48.898;9.182;2024-01-06T11:19:43;5.60;1.00
3308;DHT22;1666;48.898;9.182;2024-01-06T11:22:26;5.60;1.00
3308;DHT22;1666;48.898;9.182;2024-01-06T11:25:04;5.70;1.00
3308;DHT22;1666;48.898;9.182;2024-01-06T11:27:38;5.70;1.00
3308;DHT22;1666;48.898;9.182;2024-01-06T11:30:09;5.70;1.00
3308;DHT22;1666;48.898;9.182;2024-01-06T11:32:48;5.60;1.00
3308;DHT22;1666;48.898;9.182;2024-01-06T11:35:21;5.60;1.00
3308;DHT22;1666;48.898;9.182;2024-01-06T11:37:56;5.60;1.00
3308;DHT22;1666;48.898;9.182;2024-01-06T11:40:34;5.70;1.00
3308;DHT22;1666;48.898;9.182;2024-01-06T11:43:08;5.60;1.00
3308;DHT22;1666;48.898;9.182;2024-01-06T11:45:40;5.40;1.00
3308;DHT22;1666;48.898;9.182;2024-01-06T11:48:11;5.50;1.00
3308;DHT22;1666;48.898;9.182;2024-01-06T11:50:42;5.60;1.00
3308;DHT22;1666;48.898;9.182;2024-01-06T11:53:12;5.60;1.00
3308;DHT22;1666;48.898;9.182;2024-01-06T11:55:42;5.80;1.00
3308;DHT22;1666;48.898;9.182;2024-01-06T11:58:16;5.60;1.00
3308;DHT22;1666;48.898;9.182;2024-01-06T12:00:55;5.70;1.00
3308;DHT22;1666;48.898;9.182;2024-01-06T12:03:26;5.80;1.00
3308;DHT22;1666;48.898;9.182;2024-01-06T12:06:00;5.90;1.00
3308;DHT22;1666;48.898;9.182;2024-01-06T12:08:31;5.70;1.00
3308;DHT22;1666;48.898;9.182;2024-01-06T12:11:02;5.60;1.00
3308;DHT22;1666;48.898;9.182;2024-01-06T12:13:35;5.50;1.00
3308;DHT22;1666;48.898;9.182;2024-01-06T12:16:06;5.60;1.00
3308;DHT22;1666;48.898;9.182;2024-01-06T12:18:36;5.60;1.00
3308;DHT22;1666;48.898;9.182;2024-01-06T12:21:07;5.60;1.00
3308;DHT22;1666;48.898;9.182;2024-01-06T12:23:37;5.70;1.00
3308;DHT22;1666;48.898;9.182;2024-01-06T12:26:07;5.70;1.00
3308;DHT22;1666;48.898;9.182;2024-01-06T12:28:40;5.60;1.00
3308;DHT22;1666;48.898;9.182;2024-01-06T12:31:10;5.50;1.00
3308;DHT22;1666;48.898;9.182;2024-01-06T12:33:40;5.50;1.00
3308;DHT22;1666;48.898;9.182;2024-01-06T12:36:10;5.50;1.00
3308;DHT22;1666;48.898;9.182;2024-01-06T12:38:52;5.50;1.00
3308;DHT22;1666;48.898;9.182;2024-01-06T12:41:23;5.50;1.00
3308;DHT22;1666;48.898;9.182;2024-01-06T12:43:56;5.60;1.00
3308;DHT22;1666;48.898;9.182;2024-01-06T12:46:26;5.50;1.00
3308;DHT22;1666;48.898;9.182;2024-01-06T12:48:56;5.60;1.00
3308;DHT22;1666;48.898;9.182;2024-01-06T12:51:26;5.50;1.00
3308;DHT22;1666;48.898;9.182;2024-01-06T12:53:57;5.50;1.00
3308;DHT22;1666;48.898;9.182;2024-01-06T12:56:27;5.60;1.00
3308;DHT22;1666;48.898;9.182;2024-01-06T12:59:00;5.60;1.00
3308;DHT22;1666;48.898;9.182;2024-01-06T13:01:30;5.60;1.00
3308;DHT22;1666;48.898;9.182;2024-01-06T13:04:00;5.50;1.00
3308;DHT22;1666;48.898;9.182;2024-01-06T13:06:31;5.50;1.00
3308;DHT22;1666;48.898;9.182;2024-01-06T13:09:01;5.50;1.00
3308;DHT22;1666;48.898;9.182;2024-01-06T13:11:34;5.40;1.00
3308;DHT22;1666;48.898;9.182;2024-01-06T13:14:07;5.40;1.00
3308;DHT22;1666;48.898;9.182;2024-01-06T13:16:37;5.40;1.00
3308;DHT22;1666;48.898;9.182;2024-01-06T13:19:07;5.50;1.00
3308;DHT22;1666;48.898;9.182;2024-01-06T13:21:38;5.40;1.00
3308;DHT22;1666;48.898;9.182;2024-01-06T13:24:08;5.30;6.50
3308;DHT22;1666;48.898;9.182;2024-01-06T13:26:39;5.30;8.90
3308;DHT22;1666;48.898;9.182;2024-01-06T13:29:12;5.30;10.10
3308;DHT22;1666;48.898;9.182;2024-01-06T13:31:42;5.20;10.10
3308;DHT22;1666;48.898;9.182;2024-01-06T13:34:12;5.30;18.80
3308;DHT22;1666;48.898;9.182;2024-01-06T13:36:43;5.40;16.60
3308;DHT22;1666;48.898;9.182;2024-01-06T13:39:14;5.30;15.20
3308;DHT22;1666;48.898;9.182;2024-01-06T13:41:48;5.30;17.70
3308;DHT22;1666;48.898;9.182;2024-01-06T13:44:21;5.40;20.20
3308;DHT22;1666;48.898;9.182;2024-01-06T13:46:52;5.20;17.40
3308;DHT22;1666;48.898;9.182;2024-01-06T13:49:22;5.30;22.20
3308;DHT22;1666;48.898;9.182;2024-01-06T13:51:55;5.40;23.10
3308;DHT22;1666;48.898;9.182;2024-01-06T13:54:25;5.40;14.80
3308;DHT22;1666;48.898;9.182;2024-01-06T13:56:56;5.20;15.90
3308;DHT22;1666;48.898;9.182;2024-01-06T13:59:29;5.20;27.10
3308;DHT22;1666;48.898;9.182;2024-01-06T14:01:59;5.30;33.50
3308;DHT22;1666;48.898;9.182;2024-01-06T14:04:29;5.30;32.50
3308;DHT22;1666;48.898;9.182;2024-01-06T14:06:59;5.40;26.30
3308;DHT22;1666;48.898;9.182;2024-01-06T14:09:31;5.40;23.40
3308;DHT22;1666;48.898;9.182;2024-01-06T14:12:02;5.40;17.00
3308;DHT22;1666;48.898;9.182;2024-01-06T14:14:35;5.40;22.30
3308;DHT22;1666;48.898;9.182;2024-01-06T14:17:05;5.30;22.40
3308;DHT22;1666;48.898;9.182;2024-01-06T14:19:35;5.40;28.20
3308;DHT22;1666;48.898;9.182;2024-01-06T14:22:06;5.20;26.60
3308;DHT22;1666;48.898;9.182;2024-01-06T14:24:36;5.20;36.70
3308;DHT22;1666;48.898;9.182;2024-01-06T14:27:06;5.20;36.90
3308;DHT22;1666;48.898;9.182;2024-01-06T14:29:38;5.30;40.30
3308;DHT22;1666;48.898;9.182;2024-01-06T14:32:09;5.40;42.70
3308;DHT22;1666;48.898;9.182;2024-01-06T14:34:40;5.40;27.70
3308;DHT22;1666;48.898;9.182;2024-01-06T14:37:10;5.30;27.40
3308;DHT22;1666;48.898;9.182;2024-01-06T14:39:40;5.40;30.50
3308;DHT22;1666;48.898;9.182;2024-01-06T14:42:10;5.30;27.40
3308;DHT22;1666;48.898;9.182;2024-01-06T14:44:43;5.30;26.00
3308;DHT22;1666;48.898;9.182;2024-01-06T14:47:13;5.30;30.70
3308;DHT22;1666;48.898;9.182;2024-01-06T14:49:43;5.30;37.80
3308;DHT22;1666;48.898;9.182;2024-01-06T14:52:13;5.30;38.80
3308;DHT22;1666;48.898;9.182;2024-01-06T14:54:44;5.30;38.00
3308;DHT22;1666;48.898;9.182;2024-01-06T14:57:16;5.20;37.30
3308;DHT22;1666;48.898;9.182;2024-01-06T14:59:48;5.30;35.00
3308;DHT22;1666;48.898;9.182;2024-01-06T15:02:19;5.20;36.30
3308;DHT22;1666;48.898;9.182;2024-01-06T15:04:49;5.20;38.20
3308;DHT22;1666;48.898;9.182;2024-01-06T15:07:20;5.30;37.30
3308;DHT22;1666;48.898;9.182;2024-01-06T15:09:50;5.30;39.80
3308;DHT22;1666;48.898;9.182;2024-01-06T15:12:20;5.30;41.00
3308;DHT22;1666;48.898;9.182;2024-01-06T15:14:53;5.30;42.50
3308;DHT22;1666;48.898;9.182;2024-01-06T15:17:25;5.40;42.00
3308;DHT22;1666;48.898;9.182;2024-01-06T15:19:55;5.40;36.20
3308;DHT22;1666;48.898;9.182;2024-01-06T15:22:27;5.40;38.60
3308;DHT22;1666;48.898;9.182;2024-01-06T15:24:57;5.20;36.90
3308;DHT22;1666;48.898;9.182;2024-01-06T15:27:33;5.20;49.20
3308;DHT22;1666;48.898;9.182;2024-01-06T15:30:06;5.20;51.90
3308;DHT22;1666;48.898;9.182;2024-01-06T15:32:37;5.20;57.10
3308;DHT22;1666;48.898;9.182;2024-01-06T15:35:08;5.30;61.50
3308;DHT22;1666;48.898;9.182;2024-01-06T15:37:39;5.30;57.50
3308;DHT22;1666;48.898;9.182;2024-01-06T15:40:10;5.30;54.20
3308;DHT22;1666;48.898;9.182;2024-01-06T15:42:40;5.30;48.30
3308;DHT22;1666;48.898;9.182;2024-01-06T15:45:13;5.30;51.30
3308;DHT22;1666;48.898;9.182;2024-01-06T15:47:43;5.20;59.60
3308;DHT22;1666;48.898;9.182;2024-01-06T15:50:13;5.20;66.00
3308;DHT22;1666;48.898;9.182;2024-01-06T15:52:43;5.20;62.90
3308;DHT22;1666;48.898;9.182;2024-01-06T15:55:15;5.20;67.60
3308;DHT22;1666;48.898;9.182;2024-01-06T15:57:45;5.20;73.60
3308;DHT22;1666;48.898;9.182;2024-01-06T16:00:18;5.20;75.10
3308;DHT22;1666;48.898;9.182;2024-01-06T16:02:48;5.20;77.40
3308;DHT22;1666;48.898;9.182;2024-01-06T16:05:19;5.20;80.10
3308;DHT22;1666;48.898;9.182;2024-01-06T16:07:49;5.20;82.50
3308;DHT22;1666;48.898;9.182;2024-01-06T16:10:19;5.20;88.10
3308;DHT22;1666;48.898;9.182;2024-01-06T16:12:50;5.20;87.10
3308;DHT22;1666;48.898;9.182;2024-01-06T16:15:23;5.20;85.30
3308;DHT22;1666;48.898;9.182;2024-01-06T16:17:54;5.20;85.60
3308;DHT22;1666;48.898;9.182;2024-01-06T16:20:24;5.20;82.50
3308;DHT22;1666;48.898;9.182;2024-01-06T16:22:54;5.20;89.10
3308;DHT22;1666;48.898;9.182;2024-01-06T16:25:24;5.20;95.00
3308;DHT22;1666;48.898;9.182;2024-01-06T16:27:54;5.20;99.90
3308;DHT22;1666;48.898;9.182;2024-01-06T16:30:28;5.10;99.90
3308;DHT22;1666;48.898;9.182;2024-01-06T16:32:58;5.10;99.90
3308;DHT22;1666;48.898;9.182;2024-01-06T16:35:28;5.10;99.90
3308;DHT22;1666;48.898;9.182;2024-01-06T16:37:58;5.10;99.90
3308;DHT22;1666;48.898;9.182;2024-01-06T16:40:29;5.00;99.90
3308;DHT22;1666;48.898;9.182;2024-01-06T16:42:59;5.00;99.90
3308;DHT22;1666;48.898;9.182;2024-01-06T16:45:32;5.00;99.90
3308;DHT22;1666;48.898;9.182;2024-01-06T16:48:02;5.00;99.90
3308;DHT22;1666;48.898;9.182;2024-01-06T16:50:33;5.00;99.90
3308;DHT22;1666;48.898;9.182;2024-01-06T16:53:07;5.00;99.90
3308;DHT22;1666;48.898;9.182;2024-01-06T16:55:37;5.00;99.90
3308;DHT22;1666;48.898;9.182;2024-01-06T16:58:07;5.10;99.90